sensor_id;sensor_type;location;lat;lon;timestamp;temperature;humidity
25346;DHT22;13300;51.032;3.710;2023-05-14T00:01:41;13.30;99.90
25346;DHT22;13300;51.032;3.710;2023-05-14T00:04:06;13.30;99.90
25346;DHT22;13300;51.032;3.710;2023-05-14T00:06:32;13.40;99.90
25346;DHT22;13300;51.032;3.710;2023-05-14T00:08:58;13.40;99.90
25346;DHT22;13300;51.032;3.710;2023-05-14T00:11:23;13.50;99.90
25346;DHT22;13300;51.032;3.710;2023-05-14T00:13:49;13.50;99.90
25346;DHT22;13300;51.032;3.710;2023-05-14T00:16:15;13.50;99.90
25346;DHT22;13300;51.032;3.710;2023-05-14T00:18:41;13.50;99.90
25346;DHT22;13300;51.032;3.710;2023-05-14T00:21:06;13.60;99.90
25346;DHT22;13300;51.032;3.710;2023-05-14T00:23:32;13.60;99.90
25346;DHT22;13300;51.032;3.710;2023-05-14T00:25:58;13.60;99.90
25346;DHT22;13300;51.032;3.710;2023-05-14T00:28:23;13.60;99.90
25346;DHT22;13300;51.032;3.710;2023-05-14T00:30:50;13.60;99.90
25346;DHT22;13300;51.032;3.710;2023-05-14T00:33:19;13.50;99.90
25346;DHT22;13300;51.032;3.710;2023-05-14T00:35:44;13.50;99.90
25346;DHT22;13300;51.032;3.710;2023-05-14T00:38:10;13.50;99.90
25346;DHT22;13300;51.032;3.710;2023-05-14T00:40:41;13.50;99.90
25346;DHT22;13300;51.032;3.710;2023-05-14T00:43:10;13.50;99.90
25346;DHT22;13300;51.032;3.710;2023-05-14T00:45:36;13.60;99.90
25346;DHT22;13300;51.032;3.710;2023-05-14T00:48:02;13.60;99.90
25346;DHT22;13300;51.032;3.710;2023-05-14T00:50:28;13.60;99.90
25346;DHT22;13300;51.032;3.710;2023-05-14T00:52:54;13.50;99.90
25346;DHT22;13300;51.032;3.710;2023-05-14T00:55:20;13.50;99.90
25346;DHT22;13300;51.032;3.710;2023-05-14T00:57:47;13.50;99.90
25346;DHT22;13300;51.032;3.710;2023-05-14T01:00:14;13.50;99.90
25346;DHT22;13300;51.032;3.710;2023-05-14T01:02:39;13.50;99.90
25346;DHT22;13300;51.032;3.710;2023-05-14T01:05:06;13.50;99.90
25346;DHT22;13300;51.032;3.710;2023-05-14T01:10:48;13.50;99.90
25346;DHT22;13300;51.032;3.710;2023-05-14T01:13:17;13.50;99.90
25346;DHT22;13300;51.032;3.710;2023-05-14T01:15:47;13.50;99.90
25346;DHT22;13300;51.032;3.710;2023-05-14T01:18:15;13.50;99.90
25346;DHT22;13300;51.032;3.710;2023-05-14T01:20:43;13.50;99.90
25346;DHT22;13300;51.032;3.710;2023-05-14T01:23:08;13.60;99.90
25346;DHT22;13300;51.032;3.710;2023-05-14T01:25:34;13.60;99.90
25346;DHT22;13300;51.032;3.710;2023-05-14T01:28:16;13.50;99.90
25346;DHT22;13300;51.032;3.710;2023-05-14T01:30:44;13.50;99.90
25346;DHT22;13300;51.032;3.710;2023-05-14T01:33:13;13.50;99.90
25346;DHT22;13300;51.032;3.710;2023-05-14T01:35:41;13.60;99.90
25346;DHT22;13300;51.032;3.710;2023-05-14T01:38:10;13.60;99.90
25346;DHT22;13300;51.032;3.710;2023-05-14T01:40:37;13.60;99.90
25346;DHT22;13300;51.032;3.710;2023-05-14T01:43:04;13.50;99.90
25346;DHT22;13300;51.032;3.710;2023-05-14T01:45:30;13.60;99.90
25346;DHT22;13300;51.032;3.710;2023-05-14T01:47:56;13.50;99.90
25346;DHT22;13300;51.032;3.710;2023-05-14T01:50:22;13.50;99.90
25346;DHT22;13300;51.032;3.710;2023-05-14T01:52:48;13.50;99.90
25346;DHT22;13300;51.032;3.710;2023-05-14T01:55:15;13.50;99.90
25346;DHT22;13300;51.032;3.710;2023-05-14T01:57:42;13.50;99.90
25346;DHT22;13300;51.032;3.710;2023-05-14T02:00:08;13.40;99.90
25346;DHT22;13300;51.032;3.710;2023-05-14T02:02:34;13.40;99.90
25346;DHT22;13300;51.032;3.710;2023-05-14T02:04:59;13.40;99.90
25346;DHT22;13300;51.032;3.710;2023-05-14T02:07:25;13.40;99.90
25346;DHT22;13300;51.032;3.710;2023-05-14T02:09:51;13.50;99.90
25346;DHT22;13300;51.032;3.710;2023-05-14T02:12:16;13.50;99.90
25346;DHT22;13300;51.032;3.710;2023-05-14T02:14:42;13.40;99.90
25346;DHT22;13300;51.032;3.710;2023-05-14T02:17:08;13.50;99.90
25346;DHT22;13300;51.032;3.710;2023-05-14T02:19:33;13.50;99.90
25346;DHT22;13300;51.032;3.710;2023-05-14T02:21:59;13.50;99.90
25346;DHT22;13300;51.032;3.710;2023-05-14T02:24:25;13.50;99.90
25346;DHT22;13300;51.032;3.710;2023-05-14T02:26:51;13.40;99.90
25346;DHT22;13300;51.032;3.710;2023-05-14T02:29:17;13.50;99.90
25346;DHT22;13300;51.032;3.710;2023-05-14T02:31:42;13.50;99.90
25346;DHT22;13300;51.032;3.710;2023-05-14T02:34:08;13.50;99.90
25346;DHT22;13300;51.032;3.710;2023-05-14T02:36:34;13.50;99.90
25346;DHT22;13300;51.032;3.710;2023-05-14T02:39:00;13.50;99.90
25346;DHT22;13300;51.032;3.710;2023-05-14T02:41:26;13.50;99.90
25346;DHT22;13300;51.032;3.710;2023-05-14T02:43:52;13.50;99.90
25346;DHT22;13300;51.032;3.710;2023-05-14T02:46:18;13.70;99.90
25346;DHT22;13300;51.032;3.710;2023-05-14T02:48:44;13.70;99.90
25346;DHT22;13300;51.032;3.710;2023-05-14T02:51:09;13.60;99.90
25346;DHT22;13300;51.032;3.710;2023-05-14T02:53:35;13.60;99.90
25346;DHT22;13300;51.032;3.710;2023-05-14T02:56:01;13.60;99.90
25346;DHT22;13300;51.032;3.710;2023-05-14T02:58:26;13.70;99.90
25346;DHT22;13300;51.032;3.710;2023-05-14T03:00:52;13.70;99.90
25346;DHT22;13300;51.032;3.710;2023-05-14T03:03:18;13.60;99.90
25346;DHT22;13300;51.032;3.710;2023-05-14T03:05:44;13.60;99.90
25346;DHT22;13300;51.032;3.710;2023-05-14T03:08:10;13.60;99.90
25346;DHT22;13300;51.032;3.710;2023-05-14T03:10:35;13.50;99.90
25346;DHT22;13300;51.032;3.710;2023-05-14T03:13:01;13.50;99.90
25346;DHT22;13300;51.032;3.710;2023-05-14T03:15:27;13.60;99.90
25346;DHT22;13300;51.032;3.710;2023-05-14T03:17:53;13.60;99.90
25346;DHT22;13300;51.032;3.710;2023-05-14T03:20:19;13.50;99.90
25346;DHT22;13300;51.032;3.710;2023-05-14T03:22:45;13.50;99.90
25346;DHT22;13300;51.032;3.710;2023-05-14T03:25:11;13.40;99.90
25346;DHT22;13300;51.032;3.710;2023-05-14T03:27:36;13.40;99.90
25346;DHT22;13300;51.032;3.710;2023-05-14T03:30:02;13.30;99.90
25346;DHT22;13300;51.032;3.710;2023-05-14T03:32:28;13.40;99.90
25346;DHT22;13300;51.032;3.710;2023-05-14T03:34:54;13.50;99.90
25346;DHT22;13300;51.032;3.710;2023-05-14T03:37:20;13.50;99.90
25346;DHT22;13300;51.032;3.710;2023-05-14T03:39:46;13.60;99.90
25346;DHT22;13300;51.032;3.710;2023-05-14T03:42:11;13.50;99.90
25346;DHT22;13300;51.032;3.710;2023-05-14T03:44:37;13.40;99.90
25346;DHT22;13300;51.032;3.710;2023-05-14T03:47:03;13.60;99.90
25346;DHT22;13300;51.032;3.710;2023-05-14T03:49:29;13.60;99.90
25346;DHT22;13300;51.032;3.710;2023-05-14T03:51:54;13.60;99.90
25346;DHT22;13300;51.032;3.710;2023-05-14T03:54:21;13.60;99.90
25346;DHT22;13300;51.032;3.710;2023-05-14T03:56:47;13.60;99.90
25346;DHT22;13300;51.032;3.710;2023-05-14T03:59:12;13.70;99.90
25346;DHT22;13300;51.032;3.710;2023-05-14T04:01:38;13.60;99.90
25346;DHT22;13300;51.032;3.710;2023-05-14T04:04:04;13.50;99.90
25346;DHT22;13300;51.032;3.710;2023-05-14T04:06:29;13.40;99.90
25346;DHT22;13300;51.032;3.710;2023-05-14T04:08:55;13.40;99.90
25346;DHT22;13300;51.032;3.710;2023-05-14T04:11:21;13.40;99.90
25346;DHT22;13300;51.032;3.710;2023-05-14T04:13:47;13.50;99.90
25346;DHT22;13300;51.032;3.710;2023-05-14T04:16:12;13.50;99.90
25346;DHT22;13300;51.032;3.710;2023-05-14T04:18:38;13.50;99.90
25346;DHT22;13300;51.032;3.710;2023-05-14T04:21:04;13.60;99.90
25346;DHT22;13300;51.032;3.710;2023-05-14T04:23:29;13.60;99.90
25346;DHT22;13300;51.032;3.710;2023-05-14T04:25:56;13.60;99.90
25346;DHT22;13300;51.032;3.710;2023-05-14T04:28:22;13.70;99.90
25346;DHT22;13300;51.032;3.710;2023-05-14T04:30:48;13.80;99.90
25346;DHT22;13300;51.032;3.710;2023-05-14T04:33:14;13.70;99.90
25346;DHT22;13300;51.032;3.710;2023-05-14T04:35:40;13.60;99.90
25346;DHT22;13300;51.032;3.710;2023-05-14T04:38:06;13.60;99.90
25346;DHT22;13300;51.032;3.710;2023-05-14T04:40:31;13.50;99.90
25346;DHT22;13300;51.032;3.710;2023-05-14T04:42:57;13.50;99.90
25346;DHT22;13300;51.032;3.710;2023-05-14T04:45:23;13.50;99.90
25346;DHT22;13300;51.032;3.710;2023-05-14T04:47:48;13.40;99.90
25346;DHT22;13300;51.032;3.710;2023-05-14T04:50:14;13.30;99.90
25346;DHT22;13300;51.032;3.710;2023-05-14T04:52:40;13.20;99.90
25346;DHT22;13300;51.032;3.710;2023-05-14T04:55:06;13.20;99.90
25346;DHT22;13300;51.032;3.710;2023-05-14T04:57:32;13.20;99.90
25346;DHT22;13300;51.032;3.710;2023-05-14T04:59:58;13.20;99.90
25346;DHT22;13300;51.032;3.710;2023-05-14T05:02:24;13.20;99.90
25346;DHT22;13300;51.032;3.710;2023-05-14T05:04:49;13.20;99.90
25346;DHT22;13300;51.032;3.710;2023-05-14T05:07:15;13.20;99.90
25346;DHT22;13300;51.032;3.710;2023-05-14T05:09:42;13.20;99.90
25346;DHT22;13300;51.032;3.710;2023-05-14T05:12:08;13.20;99.90
25346;DHT22;13300;51.032;3.710;2023-05-14T05:14:33;13.30;99.90
25346;DHT22;13300;51.032;3.710;2023-05-14T05:16:59;13.40;99.90
25346;DHT22;13300;51.032;3.710;2023-05-14T05:19:25;13.40;99.90
25346;DHT22;13300;51.032;3.710;2023-05-14T05:21:50;13.40;99.90
25346;DHT22;13300;51.032;3.710;2023-05-14T05:24:16;13.40;99.90
25346;DHT22;13300;51.032;3.710;2023-05-14T05:26:42;13.50;99.90
25346;DHT22;13300;51.032;3.710;2023-05-14T05:29:08;13.50;99.90
25346;DHT22;13300;51.032;3.710;2023-05-14T05:31:33;13.50;99.90
25346;DHT22;13300;51.032;3.710;2023-05-14T05:33:59;13.60;99.90
25346;DHT22;13300;51.032;3.710;2023-05-14T05:36:26;13.60;99.90
25346;DHT22;13300;51.032;3.710;2023-05-14T05:38:51;13.50;99.90
25346;DHT22;13300;51.032;3.710;2023-05-14T05:41:17;13.50;99.90
25346;DHT22;13300;51.032;3.710;2023-05-14T05:43:43;13.60;99.90
25346;DHT22;13300;51.032;3.710;2023-05-14T05:46:08;13.60;99.90
25346;DHT22;13300;51.032;3.710;2023-05-14T05:48:34;13.60;99.90
25346;DHT22;13300;51.032;3.710;2023-05-14T05:51:00;13.70;99.90
25346;DHT22;13300;51.032;3.710;2023-05-14T05:53:26;13.80;99.90
25346;DHT22;13300;51.032;3.710;2023-05-14T05:55:51;13.90;99.90
25346;DHT22;13300;51.032;3.710;2023-05-14T05:58:18;13.90;99.90
25346;DHT22;13300;51.032;3.710;2023-05-14T06:00:44;13.90;99.90
25346;DHT22;13300;51.032;3.710;2023-05-14T06:03:10;13.90;99.90
25346;DHT22;13300;51.032;3.710;2023-05-14T06:05:36;14.00;99.90
25346;DHT22;13300;51.032;3.710;2023-05-14T06:08:02;14.00;99.90
25346;DHT22;13300;51.032;3.710;2023-05-14T06:10:27;13.90;99.90
25346;DHT22;13300;51.032;3.710;2023-05-14T06:12:53;13.90;99.90
25346;DHT22;13300;51.032;3.710;2023-05-14T06:15:19;13.90;99.90
25346;DHT22;13300;51.032;3.710;2023-05-14T06:17:45;13.90;99.90
25346;DHT22;13300;51.032;3.710;2023-05-14T06:20:11;13.90;99.90
25346;DHT22;13300;51.032;3.710;2023-05-14T06:22:36;13.70;99.90
25346;DHT22;13300;51.032;3.710;2023-05-14T06:25:03;13.70;99.90
25346;DHT22;13300;51.032;3.710;2023-05-14T06:27:28;13.70;99.90
25346;DHT22;13300;51.032;3.710;2023-05-14T06:29:54;13.60;99.90
25346;DHT22;13300;51.032;3.710;2023-05-14T06:32:20;13.60;99.90
25346;DHT22;13300;51.032;3.710;2023-05-14T06:34:45;13.60;99.90
25346;DHT22;13300;51.032;3.710;2023-05-14T06:37:11;13.60;99.90
25346;DHT22;13300;51.032;3.710;2023-05-14T06:39:37;13.60;99.90
25346;DHT22;13300;51.032;3.710;2023-05-14T06:42:03;13.60;99.90
25346;DHT22;13300;51.032;3.710;2023-05-14T06:44:30;13.70;99.90
25346;DHT22;13300;51.032;3.710;2023-05-14T06:46:58;13.70;99.90
25346;DHT22;13300;51.032;3.710;2023-05-14T06:49:24;13.80;99.90
25346;DHT22;13300;51.032;3.710;2023-05-14T06:51:49;13.80;99.90
25346;DHT22;13300;51.032;3.710;2023-05-14T06:54:16;13.90;99.90
25346;DHT22;13300;51.032;3.710;2023-05-14T06:56:42;13.90;99.90
25346;DHT22;13300;51.032;3.710;2023-05-14T06:59:07;13.80;99.90
25346;DHT22;13300;51.032;3.710;2023-05-14T07:01:33;13.70;99.90
25346;DHT22;13300;51.032;3.710;2023-05-14T07:03:59;13.70;99.90
25346;DHT22;13300;51.032;3.710;2023-05-14T07:06:24;13.70;99.90
25346;DHT22;13300;51.032;3.710;2023-05-14T07:08:50;13.80;99.90
25346;DHT22;13300;51.032;3.710;2023-05-14T07:11:16;13.80;99.90
25346;DHT22;13300;51.032;3.710;2023-05-14T07:13:41;13.90;99.90
25346;DHT22;13300;51.032;3.710;2023-05-14T07:16:07;14.00;99.90
25346;DHT22;13300;51.032;3.710;2023-05-14T07:18:38;13.90;99.90
25346;DHT22;13300;51.032;3.710;2023-05-14T07:21:07;13.80;99.90
25346;DHT22;13300;51.032;3.710;2023-05-14T07:23:33;13.90;99.90
25346;DHT22;13300;51.032;3.710;2023-05-14T07:26:04;14.00;99.90
25346;DHT22;13300;51.032;3.710;2023-05-14T07:28:30;14.00;99.90
25346;DHT22;13300;51.032;3.710;2023-05-14T07:30:56;13.90;99.90
25346;DHT22;13300;51.032;3.710;2023-05-14T07:33:23;14.00;99.90
25346;DHT22;13300;51.032;3.710;2023-05-14T07:35:49;14.00;99.90
25346;DHT22;13300;51.032;3.710;2023-05-14T07:38:16;14.10;99.90
25346;DHT22;13300;51.032;3.710;2023-05-14T07:40:41;14.20;99.90
25346;DHT22;13300;51.032;3.710;2023-05-14T07:43:08;14.30;99.90
25346;DHT22;13300;51.032;3.710;2023-05-14T07:45:38;14.20;99.90
25346;DHT22;13300;51.032;3.710;2023-05-14T07:48:04;14.30;99.90
25346;DHT22;13300;51.032;3.710;2023-05-14T07:50:30;14.30;99.90
25346;DHT22;13300;51.032;3.710;2023-05-14T07:52:56;14.40;99.90
25346;DHT22;13300;51.032;3.710;2023-05-14T07:55:22;14.40;99.90
25346;DHT22;13300;51.032;3.710;2023-05-14T07:57:51;14.40;99.90
25346;DHT22;13300;51.032;3.710;2023-05-14T08:00:16;14.50;99.90
25346;DHT22;13300;51.032;3.710;2023-05-14T08:02:45;14.60;99.90
25346;DHT22;13300;51.032;3.710;2023-05-14T08:05:11;14.70;99.90
25346;DHT22;13300;51.032;3.710;2023-05-14T08:07:37;14.70;99.90
25346;DHT22;13300;51.032;3.710;2023-05-14T08:10:04;14.80;99.90
25346;DHT22;13300;51.032;3.710;2023-05-14T08:12:32;14.80;99.90
25346;DHT22;13300;51.032;3.710;2023-05-14T08:14:58;14.70;99.90
25346;DHT22;13300;51.032;3.710;2023-05-14T08:17:23;14.80;99.90
25346;DHT22;13300;51.032;3.710;2023-05-14T08:19:50;14.90;99.90
25346;DHT22;13300;51.032;3.710;2023-05-14T08:22:15;14.90;99.90
25346;DHT22;13300;51.032;3.710;2023-05-14T08:24:41;15.10;99.90
25346;DHT22;13300;51.032;3.710;2023-05-14T08:27:08;15.30;99.90
25346;DHT22;13300;51.032;3.710;2023-05-14T08:29:34;15.40;99.90
25346;DHT22;13300;51.032;3.710;2023-05-14T08:31:59;15.40;99.90
25346;DHT22;13300;51.032;3.710;2023-05-14T08:34:25;15.40;99.90
25346;DHT22;13300;51.032;3.710;2023-05-14T08:36:52;15.50;99.90
25346;DHT22;13300;51.032;3.710;2023-05-14T08:39:18;15.60;99.90
25346;DHT22;13300;51.032;3.710;2023-05-14T08:41:44;15.70;99.90
25346;DHT22;13300;51.032;3.710;2023-05-14T08:44:17;15.70;99.90
25346;DHT22;13300;51.032;3.710;2023-05-14T08:46:43;15.80;99.90
25346;DHT22;13300;51.032;3.710;2023-05-14T08:49:19;16.00;99.90
25346;DHT22;13300;51.032;3.710;2023-05-14T08:51:46;16.50;99.90
25346;DHT22;13300;51.032;3.710;2023-05-14T08:54:15;17.10;99.90
25346;DHT22;13300;51.032;3.710;2023-05-14T08:56:44;17.80;99.90
25346;DHT22;13300;51.032;3.710;2023-05-14T08:59:13;17.90;99.90
25346;DHT22;13300;51.032;3.710;2023-05-14T09:01:45;18.20;99.90
25346;DHT22;13300;51.032;3.710;2023-05-14T09:04:13;19.20;99.90
25346;DHT22;13300;51.032;3.710;2023-05-14T09:06:41;20.60;99.90
25346;DHT22;13300;51.032;3.710;2023-05-14T09:09:08;22.10;99.90
25346;DHT22;13300;51.032;3.710;2023-05-14T09:11:40;22.80;99.90
25346;DHT22;13300;51.032;3.710;2023-05-14T09:14:06;22.40;99.90
25346;DHT22;13300;51.032;3.710;2023-05-14T09:16:32;21.80;99.90
25346;DHT22;13300;51.032;3.710;2023-05-14T09:18:59;21.50;99.90
25346;DHT22;13300;51.032;3.710;2023-05-14T09:21:25;21.50;99.90
25346;DHT22;13300;51.032;3.710;2023-05-14T09:23:56;21.60;99.90
25346;DHT22;13300;51.032;3.710;2023-05-14T09:26:25;22.00;99.90
25346;DHT22;13300;51.032;3.710;2023-05-14T09:28:56;21.90;99.90
25346;DHT22;13300;51.032;3.710;2023-05-14T09:31:29;21.40;99.90
25346;DHT22;13300;51.032;3.710;2023-05-14T09:33:56;21.30;99.90
25346;DHT22;13300;51.032;3.710;2023-05-14T09:36:22;22.20;99.90
25346;DHT22;13300;51.032;3.710;2023-05-14T09:38:49;22.90;99.90
25346;DHT22;13300;51.032;3.710;2023-05-14T09:41:15;23.60;99.90
25346;DHT22;13300;51.032;3.710;2023-05-14T09:43:41;24.40;99.90
25346;DHT22;13300;51.032;3.710;2023-05-14T09:46:07;25.00;99.90
25346;DHT22;13300;51.032;3.710;2023-05-14T09:48:33;25.70;99.90
25346;DHT22;13300;51.032;3.710;2023-05-14T09:50:58;26.10;99.90
25346;DHT22;13300;51.032;3.710;2023-05-14T09:53:24;26.70;99.90
25346;DHT22;13300;51.032;3.710;2023-05-14T09:55:50;27.10;99.90
25346;DHT22;13300;51.032;3.710;2023-05-14T09:58:16;26.90;99.90
25346;DHT22;13300;51.032;3.710;2023-05-14T10:00:45;27.10;99.90
25346;DHT22;13300;51.032;3.710;2023-05-14T10:03:13;27.20;99.40
25346;DHT22;13300;51.032;3.710;2023-05-14T10:05:41;27.20;99.40
25346;DHT22;13300;51.032;3.710;2023-05-14T10:08:21;27.20;98.80
25346;DHT22;13300;51.032;3.710;2023-05-14T10:10:50;27.00;98.60
25346;DHT22;13300;51.032;3.710;2023-05-14T10:13:22;26.90;98.70
25346;DHT22;13300;51.032;3.710;2023-05-14T10:15:56;27.10;98.50
25346;DHT22;13300;51.032;3.710;2023-05-14T10:18:25;27.20;98.60
25346;DHT22;13300;51.032;3.710;2023-05-14T10:21:03;27.60;98.20
25346;DHT22;13300;51.032;3.710;2023-05-14T10:23:29;27.80;97.00
25346;DHT22;13300;51.032;3.710;2023-05-14T10:25:58;28.10;96.60
25346;DHT22;13300;51.032;3.710;2023-05-14T10:28:25;28.20;96.20
25346;DHT22;13300;51.032;3.710;2023-05-14T10:30:52;28.40;96.30
25346;DHT22;13300;51.032;3.710;2023-05-14T10:33:18;28.60;95.60
25346;DHT22;13300;51.032;3.710;2023-05-14T10:38:29;28.30;95.70
25346;DHT22;13300;51.032;3.710;2023-05-14T10:41:14;28.30;95.90
25346;DHT22;13300;51.032;3.710;2023-05-14T10:43:42;28.30;95.40
25346;DHT22;13300;51.032;3.710;2023-05-14T10:46:10;28.50;95.50
25346;DHT22;13300;51.032;3.710;2023-05-14T10:48:39;28.80;95.40
25346;DHT22;13300;51.032;3.710;2023-05-14T10:51:07;28.30;95.00
25346;DHT22;13300;51.032;3.710;2023-05-14T10:53:35;28.20;95.20
25346;DHT22;13300;51.032;3.710;2023-05-14T10:56:09;28.10;95.30
25346;DHT22;13300;51.032;3.710;2023-05-14T10:58:36;28.70;95.40
25346;DHT22;13300;51.032;3.710;2023-05-14T11:01:03;29.00;94.80
25346;DHT22;13300;51.032;3.710;2023-05-14T11:03:31;29.20;94.50
25346;DHT22;13300;51.032;3.710;2023-05-14T11:06:02;29.40;94.00
25346;DHT22;13300;51.032;3.710;2023-05-14T11:08:30;29.00;93.60
25346;DHT22;13300;51.032;3.710;2023-05-14T11:10:56;29.20;93.90
25346;DHT22;13300;51.032;3.710;2023-05-14T11:13:22;29.20;93.90
25346;DHT22;13300;51.032;3.710;2023-05-14T11:15:50;29.60;94.10
25346;DHT22;13300;51.032;3.710;2023-05-14T11:18:28;29.60;92.80
25346;DHT22;13300;51.032;3.710;2023-05-14T11:21:01;29.90;93.20
25346;DHT22;13300;51.032;3.710;2023-05-14T11:23:27;29.30;93.50
25346;DHT22;13300;51.032;3.710;2023-05-14T11:25:54;29.20;94.20
25346;DHT22;13300;51.032;3.710;2023-05-14T11:28:20;29.50;93.50
25346;DHT22;13300;51.032;3.710;2023-05-14T11:30:47;29.50;93.20
25346;DHT22;13300;51.032;3.710;2023-05-14T11:33:13;29.60;93.10
25346;DHT22;13300;51.032;3.710;2023-05-14T11:35:40;29.90;93.10
25346;DHT22;13300;51.032;3.710;2023-05-14T11:38:13;30.00;92.70
25346;DHT22;13300;51.032;3.710;2023-05-14T11:40:50;29.70;93.00
25346;DHT22;13300;51.032;3.710;2023-05-14T11:43:16;29.60;93.00
25346;DHT22;13300;51.032;3.710;2023-05-14T11:45:42;29.60;93.10
25346;DHT22;13300;51.032;3.710;2023-05-14T11:48:13;29.70;93.40
25346;DHT22;13300;51.032;3.710;2023-05-14T11:50:39;30.00;92.70
25346;DHT22;13300;51.032;3.710;2023-05-14T11:53:05;29.70;92.00
25346;DHT22;13300;51.032;3.710;2023-05-14T11:55:33;29.80;91.50
25346;DHT22;13300;51.032;3.710;2023-05-14T11:58:00;30.50;91.80
25346;DHT22;13300;51.032;3.710;2023-05-14T12:00:26;30.30;91.30
25346;DHT22;13300;51.032;3.710;2023-05-14T12:02:52;30.10;91.90
25346;DHT22;13300;51.032;3.710;2023-05-14T12:05:18;29.60;92.00
25346;DHT22;13300;51.032;3.710;2023-05-14T12:07:44;29.30;92.20
25346;DHT22;13300;51.032;3.710;2023-05-14T12:10:11;29.40;92.70
25346;DHT22;13300;51.032;3.710;2023-05-14T12:12:37;29.40;92.80
25346;DHT22;13300;51.032;3.710;2023-05-14T12:15:11;29.70;92.60
25346;DHT22;13300;51.032;3.710;2023-05-14T12:17:37;29.80;92.30
25346;DHT22;13300;51.032;3.710;2023-05-14T12:20:06;30.20;92.60
25346;DHT22;13300;51.032;3.710;2023-05-14T12:22:33;30.00;91.90
25346;DHT22;13300;51.032;3.710;2023-05-14T12:24:59;30.10;91.90
25346;DHT22;13300;51.032;3.710;2023-05-14T12:27:26;30.30;92.30
25346;DHT22;13300;51.032;3.710;2023-05-14T12:30:03;30.50;92.10
25346;DHT22;13300;51.032;3.710;2023-05-14T12:32:33;30.20;91.70
25346;DHT22;13300;51.032;3.710;2023-05-14T12:34:59;29.90;91.70
25346;DHT22;13300;51.032;3.710;2023-05-14T12:37:27;30.00;91.70
25346;DHT22;13300;51.032;3.710;2023-05-14T12:39:53;30.20;91.40
25346;DHT22;13300;51.032;3.710;2023-05-14T12:42:18;30.50;90.90
25346;DHT22;13300;51.032;3.710;2023-05-14T12:44:44;30.50;90.50
25346;DHT22;13300;51.032;3.710;2023-05-14T12:47:10;30.50;90.60
25346;DHT22;13300;51.032;3.710;2023-05-14T12:49:35;29.90;90.90
25346;DHT22;13300;51.032;3.710;2023-05-14T12:52:01;30.30;90.80
25346;DHT22;13300;51.032;3.710;2023-05-14T12:54:27;30.50;90.20
25346;DHT22;13300;51.032;3.710;2023-05-14T12:56:53;30.20;89.30
25346;DHT22;13300;51.032;3.710;2023-05-14T12:59:20;30.10;90.80
25346;DHT22;13300;51.032;3.710;2023-05-14T13:01:46;30.00;90.70
25346;DHT22;13300;51.032;3.710;2023-05-14T13:04:11;29.90;90.90
25346;DHT22;13300;51.032;3.710;2023-05-14T13:06:40;29.90;90.60
25346;DHT22;13300;51.032;3.710;2023-05-14T13:09:06;29.80;90.80
25346;DHT22;13300;51.032;3.710;2023-05-14T13:11:32;29.30;91.50
25346;DHT22;13300;51.032;3.710;2023-05-14T13:13:58;29.30;92.90
25346;DHT22;13300;51.032;3.710;2023-05-14T13:16:25;29.20;92.90
25346;DHT22;13300;51.032;3.710;2023-05-14T13:18:51;29.10;92.60
25346;DHT22;13300;51.032;3.710;2023-05-14T13:21:17;29.20;93.40
25346;DHT22;13300;51.032;3.710;2023-05-14T13:23:43;29.10;93.20
25346;DHT22;13300;51.032;3.710;2023-05-14T13:26:08;29.20;91.80
25346;DHT22;13300;51.032;3.710;2023-05-14T13:28:34;29.40;91.40
25346;DHT22;13300;51.032;3.710;2023-05-14T13:31:10;29.40;91.10
25346;DHT22;13300;51.032;3.710;2023-05-14T13:33:40;29.50;91.50
25346;DHT22;13300;51.032;3.710;2023-05-14T13:36:23;29.40;90.70
25346;DHT22;13300;51.032;3.710;2023-05-14T13:38:48;28.40;91.10
25346;DHT22;13300;51.032;3.710;2023-05-14T13:41:14;28.10;92.00
25346;DHT22;13300;51.032;3.710;2023-05-14T13:43:40;27.90;92.70
25346;DHT22;13300;51.032;3.710;2023-05-14T13:46:06;28.00;93.20
25346;DHT22;13300;51.032;3.710;2023-05-14T13:48:32;28.00;93.20
25346;DHT22;13300;51.032;3.710;2023-05-14T13:50:58;27.90;93.60
25346;DHT22;13300;51.032;3.710;2023-05-14T13:53:24;27.90;93.10
25346;DHT22;13300;51.032;3.710;2023-05-14T13:55:50;27.90;92.80
25346;DHT22;13300;51.032;3.710;2023-05-14T13:58:25;27.90;92.90
25346;DHT22;13300;51.032;3.710;2023-05-14T14:00:53;27.50;92.90
25346;DHT22;13300;51.032;3.710;2023-05-14T14:03:25;27.40;93.70
25346;DHT22;13300;51.032;3.710;2023-05-14T14:05:51;27.10;94.30
25346;DHT22;13300;51.032;3.710;2023-05-14T14:08:17;26.70;94.50
25346;DHT22;13300;51.032;3.710;2023-05-14T14:10:43;26.40;95.20
25346;DHT22;13300;51.032;3.710;2023-05-14T14:13:09;26.40;95.10
25346;DHT22;13300;51.032;3.710;2023-05-14T14:15:36;26.10;95.00
25346;DHT22;13300;51.032;3.710;2023-05-14T14:18:02;26.00;95.70
25346;DHT22;13300;51.032;3.710;2023-05-14T14:20:27;26.10;95.50
25346;DHT22;13300;51.032;3.710;2023-05-14T14:22:53;26.20;95.00
25346;DHT22;13300;51.032;3.710;2023-05-14T14:25:19;26.10;94.90
25346;DHT22;13300;51.032;3.710;2023-05-14T14:27:45;26.00;95.20
25346;DHT22;13300;51.032;3.710;2023-05-14T14:30:11;25.90;95.00
25346;DHT22;13300;51.032;3.710;2023-05-14T14:32:49;25.70;95.30
25346;DHT22;13300;51.032;3.710;2023-05-14T14:35:17;25.50;95.90
25346;DHT22;13300;51.032;3.710;2023-05-14T14:37:44;25.20;96.10
25346;DHT22;13300;51.032;3.710;2023-05-14T14:40:14;25.10;95.90
25346;DHT22;13300;51.032;3.710;2023-05-14T14:42:40;25.00;96.00
25346;DHT22;13300;51.032;3.710;2023-05-14T14:45:07;24.90;95.80
25346;DHT22;13300;51.032;3.710;2023-05-14T14:47:33;25.00;95.60
25346;DHT22;13300;51.032;3.710;2023-05-14T14:49:59;25.00;95.70
25346;DHT22;13300;51.032;3.710;2023-05-14T14:52:25;24.70;95.90
25346;DHT22;13300;51.032;3.710;2023-05-14T14:54:52;24.90;96.50
25346;DHT22;13300;51.032;3.710;2023-05-14T14:57:18;25.50;95.50
25346;DHT22;13300;51.032;3.710;2023-05-14T14:59:43;25.40;95.50
25346;DHT22;13300;51.032;3.710;2023-05-14T15:02:09;25.10;95.60
25346;DHT22;13300;51.032;3.710;2023-05-14T15:04:36;24.80;96.00
25346;DHT22;13300;51.032;3.710;2023-05-14T15:07:03;25.00;96.30
25346;DHT22;13300;51.032;3.710;2023-05-14T15:09:29;25.00;95.90
25346;DHT22;13300;51.032;3.710;2023-05-14T15:11:55;25.30;95.90
25346;DHT22;13300;51.032;3.710;2023-05-14T15:14:21;25.30;95.50
25346;DHT22;13300;51.032;3.710;2023-05-14T15:16:47;25.30;95.80
25346;DHT22;13300;51.032;3.710;2023-05-14T15:19:12;25.40;96.10
25346;DHT22;13300;51.032;3.710;2023-05-14T15:21:38;25.40;95.80
25346;DHT22;13300;51.032;3.710;2023-05-14T15:24:04;25.30;95.90
25346;DHT22;13300;51.032;3.710;2023-05-14T15:26:30;25.00;96.20
25346;DHT22;13300;51.032;3.710;2023-05-14T15:28:56;24.90;96.50
25346;DHT22;13300;51.032;3.710;2023-05-14T15:31:23;24.50;96.90
25346;DHT22;13300;51.032;3.710;2023-05-14T15:33:50;24.20;97.00